Time;durP1;ratioP1;P1;durP2;ratioP2;P2;SDS_P1;SDS_P2;PMS_P1;PMS_P2;Temp;Humidity;BMP_temperature;BMP_pressure;BME280_temperature;BME280_humidity;BME280_pressure;Samples;Min_cycle;Max_cycle;Signal;HPM_P1;HPM_P2
2023/08/27 00:00:10;;;;;;;741.20;690.47;;;;;;;26.24;59.39;99331.94;297473;32;3919;-74
2023/08/27 00:00:21;;;;;;;743.05;692.33;;;;;;;26.19;59.38;99327.06;297262;32;5816;-74
2023/08/27 00:00:32;;;;;;;737.30;686.87;;;;;;;26.18;59.66;99325.41;299705;32;3821;-74
2023/08/27 00:00:44;;;;;;;737.53;686.97;;;;;;;26.17;59.64;99328.25;299498;32;3632;-74
2023/08/27 00:00:55;;;;;;;742.90;692.22;;;;;;;26.16;59.22;99330.09;297962;32;4675;-74
2023/08/27 00:01:05;;;;;;;739.20;688.73;;;;;;;26.12;59.58;99326.06;296227;33;5686;-74
2023/08/27 00:01:15;;;;;;;738.93;688.53;;;;;;;26.09;59.65;99328.25;292829;33;1112;-74
2023/08/27 00:01:26;;;;;;;738.10;687.60;;;;;;;26.05;59.84;99334.94;288532;33;6347;-74
2023/08/27 00:01:36;;;;;;;746.70;695.90;;;;;;;26.03;60.14;99327.06;289529;33;6520;-74
2023/08/27 00:01:47;;;;;;;749.35;698.30;;;;;;;26.05;59.85;99324.22;294025;33;1454;-74
2023/08/27 00:01:57;;;;;;;747.73;696.70;;;;;;;26.08;60.06;99332.78;288857;33;6251;-74
2023/08/27 00:02:07;;;;;;;746.47;695.28;;;;;;;26.11;60.15;99324.38;287621;33;5037;-74
2023/08/27 00:02:18;;;;;;;743.03;691.93;;;;;;;26.15;59.83;99330.25;288173;34;1224;-74
2023/08/27 00:02:28;;;;;;;741.47;690.53;;;;;;;26.18;59.89;99330.75;286141;34;4587;-74
2023/08/27 00:02:38;;;;;;;737.20;686.45;;;;;;;26.23;59.68;99332.09;284665;34;5547;-74
2023/08/27 00:02:51;;;;;;;736.73;686.23;;;;;;;26.26;59.68;99326.41;283826;34;5252;-74
2023/08/27 00:03:02;;;;;;;733.38;683.05;;;;;;;26.29;59.26;99326.06;281729;35;1090;-74
2023/08/27 00:03:12;;;;;;;735.70;685.10;;;;;;;26.31;59.33;99329.44;280386;35;7151;-74
2023/08/27 00:03:22;;;;;;;744.65;693.80;;;;;;;26.33;59.06;99328.25;280312;34;7601;-75
2023/08/27 00:05:42;;;;;;;699.05;650.04;;;;;;;26.54;58.25;99327.69;2500020;27;20481;-76
2023/08/27 00:05:52;;;;;;;735.55;685.08;;;;;;;26.56;58.57;99322.16;354167;27;937;-75
2023/08/27 00:06:03;;;;;;;735.72;685.30;;;;;;;26.58;58.50;99331.72;350101;28;1340;-76
2023/08/27 00:06:13;;;;;;;735.83;685.47;;;;;;;26.60;58.44;99328.84;347473;28;816;-76
2023/08/27 00:06:23;;;;;;;740.13;689.72;;;;;;;26.59;58.50;99327.19;348617;28;1286;-76
2023/08/27 00:06:34;;;;;;;741.93;691.33;;;;;;;26.58;58.24;99329.03;350266;28;832;-76
2023/08/27 00:06:44;;;;;;;739.80;689.13;;;;;;;26.55;58.60;99326.69;350077;28;1322;-76
2023/08/27 00:06:55;;;;;;;736.30;685.73;;;;;;;26.52;58.61;99327.88;351214;28;1313;-76
2023/08/27 00:07:05;;;;;;;734.03;683.60;;;;;;;26.50;58.87;99329.88;349850;28;1504;-76
2023/08/27 00:07:16;;;;;;;732.38;682.08;;;;;;;26.48;58.72;99331.91;348934;28;911;-75
2023/08/27 00:07:26;;;;;;;730.70;680.40;;;;;;;26.48;58.83;99325.69;350120;28;1202;-75
2023/08/27 00:07:36;;;;;;;731.92;681.63;;;;;;;26.46;59.10;99327.72;350028;28;1576;-75
2023/08/27 00:07:47;;;;;;;732.87;682.27;;;;;;;26.46;59.37;99325.03;351447;28;1399;-75
2023/08/27 00:07:58;;;;;;;737.03;686.33;;;;;;;26.44;59.06;99327.88;350204;28;812;-75
2023/08/27 00:08:08;;;;;;;734.93;684.30;;;;;;;26.43;58.92;99328.06;351526;28;922;-75
2023/08/27 00:08:18;;;;;;;732.17;681.87;;;;;;;26.42;59.10;99326.41;348637;28;1384;-75
2023/08/27 00:08:29;;;;;;;732.47;682.20;;;;;;;26.39;59.06;99322.22;347691;28;1385;-75
2023/08/27 00:08:39;;;;;;;733.23;683.07;;;;;;;26.39;59.30;99324.06;348876;28;1355;-75
2023/08/27 00:08:50;;;;;;;737.87;687.40;;;;;;;26.39;59.32;99324.91;350255;28;1205;-75
2023/08/27 00:09:00;;;;;;;736.95;686.45;;;;;;;26.36;59.21;99324.41;348546;28;1436;-75
2023/08/27 00:09:11;;;;;;;736.10;685.50;;;;;;;26.33;59.42;99325.59;348744;28;910;-75
2023/08/27 00:09:21;;;;;;;727.20;676.92;;;;;;;26.29;59.47;99323.38;346091;28;3263;-75
2023/08/27 00:09:32;;;;;;;722.87;672.83;;;;;;;26.21;59.73;99326.91;346089;28;5650;-75
2023/08/27 00:09:42;;;;;;;724.47;674.38;;;;;;;26.16;59.75;99324.72;346653;28;5636;-75
2023/08/27 00:09:52;;;;;;;732.90;682.60;;;;;;;26.12;60.19;99325.22;344193;28;1689;-75
2023/08/27 00:10:03;;;;;;;733.83;683.50;;;;;;;26.09;60.30;99321.03;346290;28;5888;-75
2023/08/27 00:10:15;;;;;;;736.13;685.67;;;;;;;26.05;60.38;99319.69;345866;28;1528;-75
2023/08/27 00:10:25;;;;;;;730.60;680.30;;;;;;;26.03;60.06;99321.72;346064;28;1327;-75
2023/08/27 00:10:35;;;;;;;735.57;685.20;;;;;;;26.01;60.31;99329.09;346103;28;1279;-75
2023/08/27 00:10:46;;;;;;;731.85;681.67;;;;;;;26.01;60.76;99323.72;344869;28;841;-75
2023/08/27 00:11:00;;;;;;;734.90;684.60;;;;;;;26.04;60.59;99322.53;344598;28;1218;-75
2023/08/27 00:11:10;;;;;;;735.92;685.58;;;;;;;26.07;60.36;99320.38;343291;28;1609;-75
2023/08/27 00:11:21;;;;;;;744.45;693.83;;;;;;;26.10;60.42;99322.72;344005;28;904;-75
2023/08/27 00:11:31;;;;;;;744.97;694.30;;;;;;;26.15;60.41;99320.38;341247;28;1564;-75
2023/08/27 00:11:42;;;;;;;741.80;691.27;;;;;;;26.17;60.27;99323.72;343308;28;1241;-75
2023/08/27 00:11:53;;;;;;;735.72;685.42;;;;;;;26.16;60.23;99322.03;343894;28;1474;-75
2023/08/27 00:12:03;;;;;;;737.27;686.87;;;;;;;26.14;60.12;99326.75;342659;28;1325;-75
2023/08/27 00:12:14;;;;;;;737.60;687.00;;;;;;;26.15;60.21;99325.72;341888;28;1385;-75
2023/08/27 00:12:24;;;;;;;735.23;684.63;;;;;;;26.16;60.26;99323.88;343169;28;1218;-75
2023/08/27 00:12:35;;;;;;;738.88;688.28;;;;;;;26.17;60.00;99323.72;345862;28;1461;-75
2023/08/27 00:12:45;;;;;;;744.97;694.27;;;;;;;26.19;60.29;99316.34;343507;28;742;-75
2023/08/27 00:12:55;;;;;;;743.78;693.10;;;;;;;26.23;60.04;99318.69;347417;28;837;-75
2023/08/27 00:13:06;;;;;;;741.60;691.00;;;;;;;26.22;60.79;99319.69;347369;28;928;-75
2023/08/27 00:13:16;;;;;;;741.87;691.37;;;;;;;26.22;60.35;99317.00;345945;28;1570;-75
2023/08/27 00:13:27;;;;;;;747.40;696.72;;;;;;;26.18;60.32;99314.66;346123;28;1436;-75
2023/08/27 00:13:37;;;;;;;745.23;694.47;;;;;;;26.18;60.13;99320.03;343500;28;1477;-75
2023/08/27 00:13:47;;;;;;;741.97;691.30;;;;;;;26.21;60.28;99318.84;342648;28;1901;-75
2023/08/27 00:13:58;;;;;;;735.17;684.63;;;;;;;26.24;60.11;99309.63;340492;29;1313;-75
2023/08/27 00:14:08;;;;;;;739.78;689.17;;;;;;;26.25;60.29;99313.97;337991;29;1282;-75
2023/08/27 00:14:19;;;;;;;741.27;690.57;;;;;;;26.27;59.83;99315.50;338496;29;1644;-75
2023/08/27 00:14:30;;;;;;;742.30;691.63;;;;;;;26.29;59.74;99315.31;337885;29;1297;-76
2023/08/27 00:14:40;;;;;;;741.90;690.95;;;;;;;26.32;59.70;99313.16;339096;29;1605;-75
2023/08/27 00:14:51;;;;;;;743.20;692.13;;;;;;;26.36;59.38;99310.97;336624;29;870;-76
2023/08/27 00:15:03;;;;;;;744.22;693.17;;;;;;;26.37;59.45;99312.66;337919;29;1218;-76
2023/08/27 00:15:14;;;;;;;740.88;690.22;;;;;;;26.37;59.83;99312.66;336647;29;939;-76
2023/08/27 00:15:24;;;;;;;741.65;691.13;;;;;;;26.33;59.55;99314.00;337797;29;1090;-76
2023/08/27 00:15:34;;;;;;;742.37;691.87;;;;;;;26.32;59.60;99320.38;335743;29;1519;-76
2023/08/27 00:15:45;;;;;;;744.57;693.97;;;;;;;26.31;59.95;99308.81;332538;29;1794;-76
2023/08/27 00:15:56;;;;;;;747.00;696.42;;;;;;;26.29;59.89;99312.63;331585;29;940;-76
2023/08/27 00:16:06;;;;;;;750.37;699.77;;;;;;;26.25;59.83;99309.47;333758;29;1786;-76
2023/08/27 00:16:17;;;;;;;744.83;694.20;;;;;;;26.25;60.06;99313.97;335436;29;2413;-76
2023/08/27 00:16:27;;;;;;;738.90;688.33;;;;;;;26.23;60.18;99313.31;334146;29;1312;-76
2023/08/27 00:16:37;;;;;;;734.00;683.40;;;;;;;26.18;60.32;99309.28;336860;29;2606;-76
2023/08/27 00:16:48;;;;;;;737.45;686.92;;;;;;;26.13;60.21;99317.00;334917;29;1656;-76
2023/08/27 00:16:58;;;;;;;743.13;692.40;;;;;;;26.13;60.39;99313.50;333887;29;1359;-76
2023/08/27 00:17:09;;;;;;;748.80;697.90;;;;;;;26.14;60.19;99318.69;334975;29;1462;-76
2023/08/27 00:17:19;;;;;;;750.88;699.97;;;;;;;26.16;60.64;99311.31;335218;29;1224;-77
2023/08/27 00:17:30;;;;;;;745.88;695.28;;;;;;;26.09;60.27;99315.66;332675;29;1801;-76
2023/08/27 00:17:41;;;;;;;737.53;687.17;;;;;;;26.02;60.86;99313.84;330363;29;1336;-76
2023/08/27 00:17:51;;;;;;;732.85;682.65;;;;;;;25.98;60.88;99312.53;330310;29;1747;-76
2023/08/27 00:18:04;;;;;;;729.13;679.08;;;;;;;25.95;60.74;99311.00;328900;29;2175;-76
2023/08/27 00:18:15;;;;;;;735.40;685.20;;;;;;;25.94;60.89;99311.19;327427;30;2751;-76
2023/08/27 00:18:25;;;;;;;736.57;686.27;;;;;;;25.94;60.92;99317.38;326763;30;1194;-75
2023/08/27 00:18:35;;;;;;;744.78;694.28;;;;;;;25.95;60.79;99312.84;324342;30;3499;-75
2023/08/27 00:18:46;;;;;;;743.03;692.53;;;;;;;25.95;61.21;99316.38;319550;30;5665;-75
2023/08/27 00:18:56;;;;;;;742.53;692.03;;;;;;;25.93;60.85;99315.72;323414;30;3381;-75
2023/08/27 00:19:07;;;;;;;745.97;695.15;;;;;;;25.91;61.19;99312.34;323299;30;2193;-75
2023/08/27 00:19:17;;;;;;;747.90;697.00;;;;;;;25.90;61.39;99316.03;321775;30;6479;-75
2023/08/27 00:19:27;;;;;;;744.35;693.58;;;;;;;25.89;61.12;99309.00;322403;30;1498;-75
2023/08/27 00:19:38;;;;;;;736.33;685.90;;;;;;;25.91;61.19;99316.88;323494;30;2110;-75
2023/08/27 00:19:48;;;;;;;736.43;686.03;;;;;;;25.90;61.09;99315.19;323301;30;2383;-75
2023/08/27 00:19:59;;;;;;;740.63;690.17;;;;;;;25.87;61.53;99310.16;321906;30;1504;-75
2023/08/27 00:20:10;;;;;;;740.50;690.10;;;;;;;25.81;61.44;99309.00;318587;30;2579;-75
2023/08/27 00:20:20;;;;;;;740.50;690.10;;;;;;;25.84;61.45;99317.53;319124;30;3219;-75
2023/08/27 00:20:33;;;;;;;740.53;690.13;;;;;;;25.89;61.43;99309.00;319995;30;3431;-75
2023/08/27 00:20:46;;;;;;;739.60;689.17;;;;;;;25.94;61.25;99311.19;317918;31;1673;-75
2023/08/27 00:20:57;;;;;;;742.35;691.35;;;;;;;25.94;61.42;99312.00;314870;31;941;-75
2023/08/27 00:21:08;;;;;;;738.63;687.80;;;;;;;25.91;61.41;99312.34;312562;31;3498;-75
2023/08/27 00:21:19;;;;;;;733.78;683.47;;;;;;;25.90;61.39;99310.69;313402;31;2606;-75
2023/08/27 00:21:29;;;;;;;729.85;679.58;;;;;;;25.89;61.56;99316.22;313929;31;890;-75
2023/08/27 00:21:40;;;;;;;729.77;679.40;;;;;;;25.90;61.60;99315.19;313437;31;2259;-75
2023/08/27 00:21:51;;;;;;;734.63;684.08;;;;;;;25.88;61.61;99315.38;312845;31;3175;-75
2023/08/27 00:22:03;;;;;;;742.60;691.83;;;;;;;25.87;61.75;99315.53;310793;31;3616;-75
2023/08/27 00:22:13;;;;;;;742.83;692.00;;;;;;;25.85;61.58;99308.50;310573;31;934;-75
2023/08/27 00:22:24;;;;;;;736.17;685.60;;;;;;;25.85;61.65;99315.69;309361;31;3798;-75
2023/08/27 00:22:34;;;;;;;734.03;683.58;;;;;;;25.85;61.87;99313.03;309217;31;4337;-75
2023/08/27 00:22:45;;;;;;;733.07;682.70;;;;;;;25.83;61.91;99315.03;309158;31;4263;-75
2023/08/27 00:22:55;;;;;;;733.70;683.33;;;;;;;25.85;61.68;99310.34;305126;32;873;-75
2023/08/27 00:23:05;;;;;;;729.47;679.27;;;;;;;25.90;61.72;99309.84;307470;31;4715;-75
2023/08/27 00:23:16;;;;;;;732.88;682.60;;;;;;;25.91;61.81;99312.34;307739;31;4560;-75
2023/08/27 00:23:26;;;;;;;731.37;681.17;;;;;;;25.91;61.62;99312.34;307362;32;847;-75
2023/08/27 00:23:38;;;;;;;731.47;681.30;;;;;;;25.93;61.82;99321.06;301358;32;3373;-75
2023/08/27 00:23:49;;;;;;;729.83;679.72;;;;;;;25.89;61.69;99306.31;299317;32;3318;-75
2023/08/27 00:23:59;;;;;;;733.97;683.70;;;;;;;25.91;61.70;99312.34;300950;32;861;-75
2023/08/27 00:24:10;;;;;;;734.20;683.90;;;;;;;25.93;61.61;99313.03;300460;32;5205;-75
2023/08/27 00:24:20;;;;;;;734.85;684.42;;;;;;;25.93;61.61;99310.34;299741;32;5455;-75
2023/08/27 00:24:32;;;;;;;734.40;683.83;;;;;;;25.94;61.63;99312.00;297653;32;6044;-75
2023/08/27 00:24:42;;;;;;;741.30;690.45;;;;;;;25.97;61.69;99314.38;296939;33;948;-75
2023/08/27 00:24:52;;;;;;;744.87;694.03;;;;;;;26.00;61.58;99316.69;294533;33;5893;-75
2023/08/27 00:25:03;;;;;;;743.05;692.40;;;;;;;26.03;61.37;99308.31;296629;32;6790;-75
2023/08/27 00:25:14;;;;;;;733.72;683.35;;;;;;;26.07;61.41;99315.00;298859;33;1080;-75
2023/08/27 00:25:24;;;;;;;734.03;683.63;;;;;;;26.10;61.22;99313.81;295972;33;6319;-75
2023/08/27 00:25:34;;;;;;;738.60;688.17;;;;;;;26.13;60.92;99303.59;294870;33;6567;-75
2023/08/27 00:25:45;;;;;;;736.00;685.60;;;;;;;26.12;60.89;99304.59;295942;33;4785;-75
2023/08/27 00:25:55;;;;;;;730.53;680.33;;;;;;;26.08;60.89;99307.78;294848;33;1295;-75
2023/08/27 00:26:06;;;;;;;726.00;675.80;;;;;;;26.06;61.43;99304.44;290329;33;5514;-75
2023/08/27 00:26:16;;;;;;;730.27;679.90;;;;;;;26.06;61.18;99310.66;289681;33;7202;-75
2023/08/27 00:26:26;;;;;;;734.30;683.80;;;;;;;26.08;60.86;99319.38;296060;33;842;-75
2023/08/27 00:26:37;;;;;;;736.47;686.03;;;;;;;26.10;61.02;99311.16;292721;33;6807;-75
2023/08/27 00:26:47;;;;;;;738.83;688.35;;;;;;;26.09;60.84;99310.31;289240;33;7611;-75
2023/08/27 00:26:58;;;;;;;737.37;687.03;;;;;;;26.04;61.19;99309.97;290030;34;1310;-75
2023/08/27 00:27:08;;;;;;;737.30;686.83;;;;;;;26.05;61.18;99308.97;291223;33;8012;-75
2023/08/27 00:27:19;;;;;;;737.05;686.65;;;;;;;26.02;61.34;99313.84;289300;34;11112;-75
2023/08/27 00:27:29;;;;;;;737.83;687.43;;;;;;;26.02;61.10;99309.31;287238;34;1237;-75
2023/08/27 00:27:40;;;;;;;735.57;685.23;;;;;;;26.04;61.17;99311.81;282151;34;8399;-75
2023/08/27 00:29:19;;;;;;;695.61;646.38;;;;;;;26.03;61.19;99308.31;2496095;27;20782;-75
2023/08/27 00:29:29;;;;;;;732.60;682.10;;;;;;;25.96;60.91;99312.69;354195;27;894;-75
2023/08/27 00:29:40;;;;;;;735.33;684.72;;;;;;;25.94;61.30;99309.34;350354;28;1821;-75
2023/08/27 00:29:50;;;;;;;731.78;681.42;;;;;;;25.92;61.57;99308.66;347421;28;3383;-75
2023/08/27 00:30:04;;;;;;;733.87;683.50;;;;;;;25.85;61.57;99313.03;348503;28;1247;-74
2023/08/27 00:30:14;;;;;;;736.42;686.03;;;;;;;25.83;61.73;99309.66;348711;28;1307;-74
2023/08/27 00:30:25;;;;;;;737.07;686.70;;;;;;;25.82;61.79;99308.00;348791;28;1404;-74
2023/08/27 00:30:35;;;;;;;737.83;687.55;;;;;;;25.83;61.93;99309.66;348871;28;1259;-74
2023/08/27 00:30:45;;;;;;;737.13;686.83;;;;;;;25.82;62.06;99314.19;348886;28;1436;-74
2023/08/27 00:31:03;;;;;;;734.17;683.93;;;;;;;25.76;61.83;99309.50;346787;28;1202;-74
2023/08/27 00:31:13;;;;;;;732.75;682.42;;;;;;;25.76;62.33;99314.84;347305;28;1541;-74
2023/08/27 00:31:23;;;;;;;733.50;682.97;;;;;;;25.79;62.05;99313.69;349420;28;1185;-74
2023/08/27 00:31:34;;;;;;;734.87;684.30;;;;;;;25.82;61.91;99308.00;350299;28;777;-74
2023/08/27 00:31:45;;;;;;;729.47;679.08;;;;;;;25.83;62.09;99309.66;350158;28;1357;-74
2023/08/27 00:31:55;;;;;;;729.00;678.75;;;;;;;25.83;61.85;99312.34;351395;28;1218;-74
2023/08/27 00:32:06;;;;;;;732.10;681.73;;;;;;;25.84;61.99;99316.72;351444;28;1202;-74
2023/08/27 00:32:16;;;;;;;731.05;680.75;;;;;;;25.81;61.76;99317.03;348527;28;1327;-74
2023/08/27 00:32:28;;;;;;;735.00;684.57;;;;;;;25.80;62.09;99312.69;348677;28;1305;-74
2023/08/27 00:32:38;;;;;;;731.35;680.80;;;;;;;25.81;61.91;99322.41;348627;28;1568;-74
2023/08/27 00:32:48;;;;;;;727.87;677.40;;;;;;;25.82;62.19;99313.34;350216;28;1059;-74
2023/08/27 00:32:59;;;;;;;723.35;673.05;;;;;;;25.80;62.23;99310.00;349287;28;1445;-74
2023/08/27 00:33:09;;;;;;;720.70;670.63;;;;;;;25.78;61.83;99312.84;345869;28;1113;-74
2023/08/27 00:33:23;;;;;;;715.10;665.23;;;;;;;25.78;62.11;99312.84;348512;28;1558;-74
2023/08/27 00:33:33;;;;;;;706.22;656.65;;;;;;;25.76;62.39;99314.03;350205;28;845;-75
2023/08/27 00:33:43;;;;;;;700.33;650.80;;;;;;;25.74;62.20;99321.38;350116;28;1146;-75
2023/08/27 00:33:54;;;;;;;698.15;648.55;;;;;;;25.74;62.53;99314.19;349916;28;1235;-75
2023/08/27 00:34:04;;;;;;;692.83;643.33;;;;;;;25.72;62.44;99312.69;348277;28;1592;-75
2023/08/27 00:34:14;;;;;;;692.40;642.97;;;;;;;25.73;62.12;99317.88;347329;28;1319;-75
2023/08/27 00:34:34;;;;;;;693.25;643.85;;;;;;;25.74;62.27;99316.03;344590;28;1318;-75
2023/08/27 00:34:45;;;;;;;697.05;647.63;;;;;;;25.75;62.27;99318.53;344456;28;1303;-75
2023/08/27 00:34:55;;;;;;;696.90;647.43;;;;;;;25.77;62.60;99315.69;344426;28;1207;-75
2023/08/27 00:35:06;;;;;;;688.80;639.50;;;;;;;25.78;62.02;99322.72;344560;28;1319;-75
2023/08/27 00:35:16;;;;;;;693.70;644.15;;;;;;;25.78;62.13;99323.56;343336;28;907;-75
2023/08/27 00:35:27;;;;;;;691.53;642.03;;;;;;;25.77;62.41;99326.41;348136;28;1496;-75
2023/08/27 00:35:38;;;;;;;696.92;647.08;;;;;;;25.73;62.47;99319.72;346365;28;1109;-75
2023/08/27 00:35:48;;;;;;;692.37;642.67;;;;;;;25.71;62.47;99321.72;346199;28;1443;-75
2023/08/27 00:35:59;;;;;;;692.05;642.25;;;;;;;25.72;62.63;99320.72;345709;28;1037;-75
2023/08/27 00:36:09;;;;;;;690.43;640.70;;;;;;;25.69;62.48;99324.56;344600;28;841;-75
2023/08/27 00:36:19;;;;;;;683.80;634.25;;;;;;;25.69;62.50;99319.22;343557;28;1394;-75
2023/08/27 00:36:30;;;;;;;677.73;628.30;;;;;;;25.67;62.44;99325.75;340567;28;1270;-75
2023/08/27 00:36:41;;;;;;;683.57;633.77;;;;;;;25.65;63.12;99319.69;345293;28;1459;-75
2023/08/27 00:36:51;;;;;;;683.83;634.17;;;;;;;25.62;62.76;99314.63;345659;28;1204;-75
2023/08/27 00:37:01;;;;;;;678.53;629.10;;;;;;;25.59;62.57;99321.16;344513;28;1255;-75
2023/08/27 00:37:12;;;;;;;673.30;624.20;;;;;;;25.51;63.13;99327.38;342366;28;1204;-75
2023/08/27 00:37:22;;;;;;;680.15;630.75;;;;;;;25.52;63.17;99320.19;344822;28;2831;-74
2023/08/27 00:37:33;;;;;;;683.00;633.50;;;;;;;25.53;63.09;99311.13;342183;28;5875;-74
2023/08/27 00:37:43;;;;;;;680.53;631.23;;;;;;;25.51;63.41;99318.50;340969;28;3439;-74
2023/08/27 00:37:53;;;;;;;680.20;630.70;;;;;;;25.49;63.19;99324.03;336979;28;1602;-74
2023/08/27 00:38:05;;;;;;;676.53;627.13;;;;;;;25.53;63.24;99319.19;339747;29;3472;-74
2023/08/27 00:38:15;;;;;;;671.10;621.80;;;;;;;25.55;63.07;99317.16;340217;29;1404;-74
2023/08/27 00:38:26;;;;;;;670.85;621.88;;;;;;;25.59;63.09;99313.13;339123;29;1316;-75
2023/08/27 00:38:37;;;;;;;675.50;626.43;;;;;;;25.64;63.06;99320.72;338035;29;922;-75
2023/08/27 00:38:47;;;;;;;679.60;630.45;;;;;;;25.65;62.80;99323.22;339303;29;1221;-75
2023/08/27 00:38:58;;;;;;;677.53;628.43;;;;;;;25.65;62.73;99317.03;337783;29;1023;-75
2023/08/27 00:39:08;;;;;;;672.35;623.40;;;;;;;25.64;62.80;99315.34;334092;29;1742;-75
2023/08/27 00:39:18;;;;;;;671.73;622.73;;;;;;;25.64;62.79;99318.88;330650;29;1447;-75
2023/08/27 00:39:29;;;;;;;672.92;623.92;;;;;;;25.65;63.06;99322.38;335298;29;1705;-75
2023/08/27 00:39:39;;;;;;;681.43;632.33;;;;;;;25.65;62.81;99319.69;335325;29;1662;-75
2023/08/27 00:39:50;;;;;;;682.85;633.75;;;;;;;25.66;62.84;99316.00;336411;29;1447;-75
2023/08/27 00:40:00;;;;;;;679.87;630.73;;;;;;;25.70;62.97;99320.03;332747;29;777;-75
2023/08/27 00:40:11;;;;;;;681.33;632.15;;;;;;;25.70;62.47;99317.38;330542;29;2216;-75
2023/08/27 00:40:21;;;;;;;674.07;625.07;;;;;;;25.70;62.72;99314.69;330968;29;1833;-75
2023/08/27 00:40:31;;;;;;;681.73;632.67;;;;;;;25.68;62.87;99316.69;331574;29;1306;-75
2023/08/27 00:40:42;;;;;;;681.90;632.78;;;;;;;25.66;62.75;99319.53;329372;29;920;-75
2023/08/27 00:40:52;;;;;;;687.17;637.87;;;;;;;25.66;62.87;99308.81;327034;30;1297;-75
2023/08/27 00:41:03;;;;;;;685.65;636.30;;;;;;;25.69;62.91;99318.38;327838;30;1251;-75
2023/08/27 00:41:14;;;;;;;688.07;638.47;;;;;;;25.71;62.68;99321.72;325416;29;1840;-75
2023/08/27 00:41:24;;;;;;;688.97;639.38;;;;;;;25.72;62.72;99312.69;326207;29;2444;-75
2023/08/27 00:41:35;;;;;;;690.35;640.90;;;;;;;25.72;62.80;99320.72;324986;30;2127;-75
2023/08/27 00:41:45;;;;;;;692.87;643.40;;;;;;;25.75;62.99;99312.34;321845;30;1276;-74
2023/08/27 00:41:56;;;;;;;700.10;650.28;;;;;;;25.78;62.37;99317.38;319382;30;2406;-74
2023/08/27 00:42:06;;;;;;;697.75;647.85;;;;;;;25.79;62.66;99314.53;317329;30;2347;-74
2023/08/27 00:42:17;;;;;;;696.37;646.50;;;;;;;25.81;62.59;99317.88;317340;31;881;-74
2023/08/27 00:42:27;;;;;;;690.47;640.95;;;;;;;25.84;62.35;99314.03;320603;30;2719;-74
2023/08/27 00:42:38;;;;;;;699.50;649.83;;;;;;;25.87;62.63;99313.69;321912;30;1820;-74
2023/08/27 00:42:48;;;;;;;701.47;651.90;;;;;;;25.89;62.03;99309.00;320866;30;857;-74
2023/08/27 00:42:58;;;;;;;702.10;652.50;;;;;;;25.85;62.11;99313.03;316844;31;1219;-74
2023/08/27 00:43:09;;;;;;;696.83;647.47;;;;;;;25.85;62.24;99307.66;316957;31;2013;-74
2023/08/27 00:43:19;;;;;;;692.50;643.20;;;;;;;25.84;62.34;99312.19;314941;31;882;-74
2023/08/27 00:43:30;;;;;;;689.30;640.10;;;;;;;25.81;62.50;99311.69;311751;31;840;-74
2023/08/27 00:43:41;;;;;;;685.92;636.70;;;;;;;25.77;62.46;99315.69;311053;31;3167;-74
2023/08/27 00:43:52;;;;;;;684.83;635.63;;;;;;;25.76;62.73;99308.66;310862;31;3074;-74
2023/08/27 00:44:02;;;;;;;685.50;636.30;;;;;;;25.76;62.38;99308.66;313805;31;1507;-74
2023/08/27 00:44:13;;;;;;;690.90;641.43;;;;;;;25.75;62.27;99312.34;314813;30;3461;-74
2023/08/27 00:44:23;;;;;;;692.00;642.42;;;;;;;25.75;62.44;99312.34;315851;31;3250;-74
2023/08/27 00:44:33;;;;;;;691.13;641.53;;;;;;;25.73;62.57;99312.50;316189;31;858;-74
2023/08/27 00:44:44;;;;;;;693.47;643.90;;;;;;;25.73;62.71;99317.03;317732;31;3118;-74
2023/08/27 00:44:54;;;;;;;692.53;643.07;;;;;;;25.72;62.77;99312.69;316127;31;2523;-74
2023/08/27 00:45:06;;;;;;;696.70;647.10;;;;;;;25.74;62.82;99302.63;314496;31;1985;-74
2023/08/27 00:45:16;;;;;;;697.30;647.75;;;;;;;25.74;62.79;99316.03;312798;31;1366;-74
2023/08/27 00:45:27;;;;;;;698.15;648.50;;;;;;;25.74;62.67;99316.03;311147;31;2801;-74
2023/08/27 00:45:37;;;;;;;694.20;644.53;;;;;;;25.70;63.06;99312.84;311911;31;3630;-74
2023/08/27 00:45:47;;;;;;;693.40;643.80;;;;;;;25.65;63.13;99317.03;310533;31;1197;-74
2023/08/27 00:45:58;;;;;;;685.40;636.08;;;;;;;25.64;62.84;99309.97;307849;31;4531;-74
2023/08/27 00:46:08;;;;;;;683.10;633.13;;;;;;;25.66;63.05;99313.34;309162;31;5014;-74
2023/08/27 00:46:19;;;;;;;681.45;631.55;;;;;;;25.67;62.80;99312.34;312835;31;910;-74
2023/08/27 00:46:29;;;;;;;695.47;645.20;;;;;;;25.67;63.33;99309.66;310745;31;4541;-74
2023/08/27 00:46:39;;;;;;;695.90;646.40;;;;;;;25.67;62.61;99310.50;307423;31;4420;-74
2023/08/27 00:46:50;;;;;;;695.40;645.80;;;;;;;25.65;62.90;99311.66;302364;32;5637;-74
2023/08/27 00:47:00;;;;;;;685.43;636.00;;;;;;;25.62;62.94;99314.63;304777;32;5957;-74
2023/08/27 00:47:11;;;;;;;685.60;635.88;;;;;;;25.60;63.02;99313.97;305643;32;3417;-74
2023/08/27 00:47:21;;;;;;;685.00;635.33;;;;;;;25.63;63.01;99313.63;302679;32;6361;-74
2023/08/27 00:47:35;;;;;;;687.25;637.58;;;;;;;25.69;62.95;99307.66;300942;32;1229;-74
2023/08/27 00:47:45;;;;;;;686.33;636.88;;;;;;;25.72;63.09;99310.00;295807;33;1997;-74
2023/08/27 00:47:55;;;;;;;685.63;636.28;;;;;;;25.74;63.00;99313.34;296100;33;5429;-74
2023/08/27 00:48:06;;;;;;;689.43;640.07;;;;;;;25.78;62.72;99314.69;295189;33;6741;-74
2023/08/27 00:48:17;;;;;;;691.60;642.20;;;;;;;25.79;62.72;99311.84;295992;33;1173;-74
2023/08/27 00:48:27;;;;;;;689.25;639.88;;;;;;;25.82;62.69;99313.34;289693;33;6497;-74
2023/08/27 00:48:38;;;;;;;687.97;638.53;;;;;;;25.84;62.65;99316.72;288975;33;6635;-74
2023/08/27 00:48:48;;;;;;;689.03;639.63;;;;;;;25.88;62.48;99312.69;294571;33;1489;-74
2023/08/27 00:48:59;;;;;;;695.13;645.70;;;;;;;25.88;62.34;99310.00;294492;33;5981;-74
2023/08/27 00:49:10;;;;;;;694.53;645.05;;;;;;;25.85;62.26;99313.84;292948;33;6259;-75
2023/08/27 00:49:21;;;;;;;700.13;650.33;;;;;;;25.81;62.43;99317.03;289800;34;5070;-75
2023/08/27 00:49:32;;;;;;;698.75;649.03;;;;;;;25.79;62.74;99314.53;289150;34;899;-75
2023/08/27 00:49:42;;;;;;;706.47;656.63;;;;;;;25.80;62.63;99315.38;282932;34;5140;-75
2023/08/27 00:49:53;;;;;;;706.17;656.40;;;;;;;25.78;62.64;99314.69;283633;34;5727;-75
2023/08/27 00:50:04;;;;;;;707.38;657.47;;;;;;;25.78;62.65;99317.38;285192;34;1211;-75
2023/08/27 00:50:14;;;;;;;697.10;647.53;;;;;;;25.77;62.99;99310.34;287705;34;6854;-75
2023/08/27 00:50:25;;;;;;;694.47;645.03;;;;;;;25.77;62.47;99310.34;285830;34;9130;-75
2023/08/27 00:50:35;;;;;;;692.05;642.70;;;;;;;25.73;62.69;99307.16;282225;34;8564;-74
2023/08/27 00:50:45;;;;;;;697.97;648.47;;;;;;;25.67;62.82;99310.50;283571;34;865;-74
2023/08/27 00:50:57;;;;;;;690.42;641.05;;;;;;;25.62;62.94;99307.44;281539;34;9262;-74
2023/08/27 00:51:07;;;;;;;686.30;637.03;;;;;;;25.59;63.23;99310.44;281317;34;8457;-74
2023/08/27 00:51:17;;;;;;;692.13;642.67;;;;;;;25.60;63.19;99308.59;283539;34;849;-74
2023/08/27 00:51:28;;;;;;;701.10;651.33;;;;;;;25.58;63.11;99308.78;277410;35;8717;-74
2023/08/27 00:53:11;;;;;;;657.48;609.40;;;;;;;25.67;63.09;99301.59;2497712;27;20270;-74
2023/08/27 00:53:22;;;;;;;702.47;652.67;;;;;;;25.70;62.98;99306.63;351371;28;1210;-74
2023/08/27 00:53:32;;;;;;;699.45;649.83;;;;;;;25.72;63.12;99302.78;350017;28;1551;-74
2023/08/27 00:53:42;;;;;;;700.50;650.90;;;;;;;25.72;62.95;99301.94;350187;28;844;-74
2023/08/27 00:53:53;;;;;;;698.33;648.83;;;;;;;25.71;62.74;99300.28;351432;28;1223;-74
2023/08/27 00:54:04;;;;;;;707.03;657.38;;;;;;;25.74;63.02;99302.63;351495;28;962;-74
2023/08/27 00:54:14;;;;;;;704.67;654.97;;;;;;;25.74;62.75;99299.94;348663;28;1277;-74
2023/08/27 00:54:25;;;;;;;698.00;648.40;;;;;;;25.78;62.86;99298.59;347246;28;1394;-74